createdAt,value
2018-08-14T00:03:49.344Z,17.30
2018-08-14T00:08:52.457Z,18.70
2018-08-14T00:13:55.576Z,20.83
2018-08-14T00:18:58.657Z,16.90
2018-08-14T00:24:01.778Z,14.83
2018-08-14T00:29:04.881Z,13.27
2018-08-14T00:34:09.946Z,15.23
2018-08-14T00:39:13.094Z,20.60
2018-08-14T00:44:16.314Z,15.10
2018-08-14T00:49:19.429Z,17.83
2018-08-14T00:54:22.500Z,20.20
2018-08-14T00:59:25.569Z,18.20
2018-08-14T01:04:28.713Z,17.37
2018-08-14T01:09:31.834Z,18.43
2018-08-14T01:14:34.964Z,20.10
2018-08-14T01:19:38.078Z,32.07
2018-08-14T01:24:41.156Z,22.63
2018-08-14T01:29:44.610Z,19.00
2018-08-14T01:34:47.736Z,20.07
2018-08-14T01:39:50.804Z,26.20
2018-08-14T01:44:54.033Z,26.73
2018-08-14T01:49:57.677Z,27.03
2018-08-14T01:55:00.751Z,32.27
2018-08-14T02:00:05.007Z,27.60
2018-08-14T02:05:09.241Z,30.13
2018-08-14T02:10:17.437Z,28.07
2018-08-14T02:15:20.501Z,33.67
2018-08-14T02:20:24.163Z,35.90
2018-08-14T02:25:27.330Z,31.67
2018-08-14T02:30:30.436Z,31.07
2018-08-14T02:35:33.542Z,39.00
2018-08-14T02:40:36.587Z,47.60
2018-08-14T02:45:39.727Z,40.40
2018-08-14T02:50:42.837Z,43.30
2018-08-14T02:55:45.863Z,42.27
2018-08-14T03:00:49.002Z,37.43
2018-08-14T03:05:52.081Z,41.60
2018-08-14T03:10:55.446Z,44.80
2018-08-14T03:15:58.557Z,41.60
2018-08-14T03:21:01.581Z,41.57
2018-08-14T03:26:04.693Z,42.90
2018-08-14T03:31:07.774Z,52.90
2018-08-14T03:36:10.849Z,43.60
2018-08-14T03:41:13.904Z,44.47
2018-08-14T03:46:16.934Z,44.90
2018-08-14T03:51:20.092Z,35.10
2018-08-14T03:56:23.217Z,44.70
2018-08-14T04:01:26.306Z,48.10
2018-08-14T04:06:29.433Z,42.00
2018-08-14T04:11:32.462Z,42.43
2018-08-14T04:16:36.417Z,40.20
2018-08-14T04:21:39.481Z,47.03
2018-08-14T04:26:42.643Z,38.70
2018-08-14T04:31:46.216Z,48.83
2018-08-14T04:36:49.293Z,47.73
2018-08-14T04:41:52.402Z,34.53
2018-08-14T04:46:55.526Z,39.50
2018-08-14T04:51:58.676Z,38.40
2018-08-14T04:57:01.860Z,37.10
2018-08-14T05:02:05.438Z,34.17
2018-08-14T05:07:08.576Z,32.70
2018-08-14T05:12:11.950Z,36.33
2018-08-14T05:17:14.994Z,43.30
2018-08-14T05:22:18.041Z,34.97
2018-08-14T05:27:21.130Z,32.20
2018-08-14T05:32:24.256Z,28.00
2018-08-14T05:37:27.349Z,28.37
2018-08-14T05:42:30.464Z,26.33
2018-08-14T05:47:33.586Z,31.73
2018-08-14T05:52:36.677Z,29.90
2018-08-14T05:57:39.711Z,23.00
2018-08-14T06:02:42.818Z,26.10
2018-08-14T06:07:45.943Z,23.10
2018-08-14T06:12:50.736Z,29.33
2018-08-14T06:17:54.105Z,21.90
2018-08-14T06:22:58.829Z,22.80
2018-08-14T06:28:03.265Z,22.43
2018-08-14T06:33:06.460Z,22.67
2018-08-14T06:38:09.544Z,25.60
2018-08-14T06:43:12.729Z,23.60
2018-08-14T06:48:15.844Z,29.77
2018-08-14T06:53:18.984Z,22.80
2018-08-14T06:58:24.333Z,29.60
2018-08-14T07:03:29.922Z,24.60
2018-08-14T07:08:34.176Z,26.43
2018-08-14T07:13:38.796Z,22.50
2018-08-14T07:18:41.980Z,26.30
2018-08-14T07:23:45.101Z,23.73
2018-08-14T07:28:48.136Z,19.90
2018-08-14T07:33:51.157Z,28.00
2018-08-14T07:38:54.296Z,21.87
2018-08-14T07:43:58.369Z,21.80
2018-08-14T07:49:01.460Z,17.67
2018-08-14T07:54:04.533Z,19.63
2018-08-14T07:59:07.638Z,14.87
2018-08-14T08:04:10.745Z,15.20
2018-08-14T08:09:14.017Z,16.13
2018-08-14T08:14:17.100Z,12.40
2018-08-14T08:19:20.257Z,11.93
2018-08-14T08:24:23.346Z,12.20
2018-08-14T08:29:26.430Z,10.73
2018-08-14T08:34:29.604Z,8.27
2018-08-14T08:39:32.690Z,8.47
2018-08-14T08:44:35.774Z,5.23
2018-08-14T08:49:38.897Z,8.00
2018-08-14T08:54:42.002Z,6.47
2018-08-14T08:59:45.135Z,3.63
2018-08-14T09:04:48.244Z,3.00
2018-08-14T09:09:51.388Z,3.17
2018-08-14T09:14:54.549Z,2.50
2018-08-14T09:19:57.645Z,6.90
2018-08-14T09:25:00.780Z,3.20
2018-08-14T09:30:06.603Z,3.30
2018-08-14T09:35:11.007Z,2.20
2018-08-14T09:40:17.764Z,3.13
2018-08-14T09:45:22.041Z,4.93
2018-08-14T09:50:25.906Z,1.97
2018-08-14T09:55:28.987Z,1.70
2018-08-14T10:00:37.808Z,6.27
2018-08-14T10:05:46.578Z,2.23
2018-08-14T10:10:49.710Z,21.23
2018-08-14T10:15:52.888Z,4.70
2018-08-14T10:20:56.047Z,9.30
2018-08-14T10:25:59.153Z,4.03
2018-08-14T10:31:02.251Z,2.20
2018-08-14T10:36:05.422Z,3.97
2018-08-14T10:41:08.575Z,1.43
2018-08-14T10:46:11.812Z,1.67
2018-08-14T10:51:15.094Z,4.20
2018-08-14T10:56:18.190Z,1.30
2018-08-14T11:01:21.337Z,1.80
2018-08-14T11:06:24.436Z,3.00
2018-08-14T11:11:29.824Z,1.20
2018-08-14T11:16:33.023Z,1.83
2018-08-14T11:21:36.093Z,1.43
2018-08-14T11:26:39.268Z,1.60
2018-08-14T11:31:42.342Z,4.40
2018-08-14T11:36:45.508Z,2.40
2018-08-14T11:41:48.593Z,1.10
2018-08-14T11:46:51.645Z,2.83
2018-08-14T11:51:54.737Z,1.37
2018-08-14T11:56:57.829Z,1.00
2018-08-14T12:02:01.439Z,1.80
2018-08-14T12:07:04.640Z,0.70
2018-08-14T12:12:07.695Z,2.30
2018-08-14T12:17:10.817Z,1.57
2018-08-14T12:22:13.912Z,1.77
2018-08-14T12:27:17.125Z,2.23
2018-08-14T12:32:20.223Z,1.80
2018-08-14T12:37:23.402Z,2.90
2018-08-14T12:42:26.502Z,3.87
2018-08-14T12:47:29.545Z,2.80
2018-08-14T12:52:32.703Z,1.27
2018-08-14T12:57:35.815Z,2.20
2018-08-14T13:02:38.986Z,1.30
2018-08-14T13:07:42.066Z,1.73
2018-08-14T13:12:45.220Z,1.67
2018-08-14T13:18:04.654Z,2.30
2018-08-14T13:23:11.313Z,1.50
2018-08-14T13:28:14.485Z,6.23
2018-08-14T13:33:17.531Z,3.63
2018-08-14T13:38:20.568Z,3.43
2018-08-14T13:43:23.672Z,7.00
2018-08-14T13:48:27.009Z,2.63
2018-08-14T13:53:30.284Z,3.80
2018-08-14T13:58:33.388Z,6.60
2018-08-14T14:03:36.469Z,5.90
2018-08-14T14:08:39.674Z,3.33
2018-08-14T14:13:42.741Z,8.87
2018-08-14T14:18:45.789Z,9.77
2018-08-14T14:23:48.891Z,8.87
2018-08-14T14:28:53.332Z,10.90
2018-08-14T14:33:56.509Z,10.20
2018-08-14T14:39:00.242Z,11.37
2018-08-14T14:44:03.846Z,11.37
2018-08-14T14:49:07.069Z,3.37
2018-08-14T14:54:10.446Z,5.20
2018-08-14T14:59:16.031Z,4.93
2018-08-14T15:04:19.212Z,8.90
2018-08-14T15:09:22.329Z,4.10
2018-08-14T15:14:25.450Z,10.53
2018-08-14T15:19:28.539Z,5.60
2018-08-14T15:24:31.637Z,8.80
2018-08-14T15:29:34.760Z,3.10
2018-08-14T15:34:37.862Z,2.63
2018-08-14T15:39:40.909Z,6.20
2018-08-14T15:44:44.034Z,4.53
2018-08-14T15:49:47.172Z,4.30
2018-08-14T15:54:50.167Z,7.90
2018-08-14T15:59:53.526Z,3.87
2018-08-14T16:04:56.599Z,10.50
2018-08-14T16:09:59.753Z,21.00
2018-08-14T16:15:02.846Z,4.20
2018-08-14T16:20:05.978Z,9.67
2018-08-14T16:25:09.115Z,4.83
2018-08-14T16:30:12.269Z,4.90
2018-08-14T16:35:15.364Z,9.97
2018-08-14T16:40:18.642Z,3.73
2018-08-14T16:45:21.714Z,7.63
2018-08-14T16:50:24.769Z,2.73
2018-08-14T16:55:27.861Z,5.27
2018-08-14T17:00:34.652Z,10.53
2018-08-14T17:05:38.253Z,3.47
2018-08-14T17:10:41.510Z,4.53
2018-08-14T17:15:45.049Z,7.97
2018-08-14T17:20:46.668Z,2.10
2018-08-14T17:25:50.054Z,4.23
2018-08-14T17:30:53.423Z,2.90
2018-08-14T17:35:57.234Z,2.97
2018-08-14T17:41:00.314Z,8.03
2018-08-14T17:46:03.522Z,5.73
2018-08-14T17:51:06.859Z,2.67
2018-08-14T17:56:11.277Z,1.67
2018-08-14T18:01:14.357Z,3.43
2018-08-14T18:06:17.724Z,6.57
2018-08-14T18:11:20.835Z,4.70
2018-08-14T18:16:24.114Z,12.20
2018-08-14T18:21:27.510Z,5.40
2018-08-14T18:26:30.663Z,6.90
2018-08-14T18:31:33.810Z,4.47
2018-08-14T18:36:36.861Z,6.97
2018-08-14T18:41:39.929Z,9.60
2018-08-14T18:46:43.097Z,3.87
2018-08-14T18:51:46.193Z,12.33
2018-08-14T18:56:49.399Z,6.80
2018-08-14T19:01:52.491Z,3.70
2018-08-14T19:06:55.577Z,4.77
2018-08-14T19:11:59.210Z,1.70
2018-08-14T19:17:02.286Z,8.30
2018-08-14T19:22:05.412Z,3.43
2018-08-14T19:27:08.863Z,5.30
2018-08-14T19:32:12.546Z,6.80
2018-08-14T19:37:15.605Z,3.40
2018-08-14T19:42:18.705Z,3.33
2018-08-14T19:47:22.153Z,6.97
2018-08-14T19:52:25.207Z,6.90
2018-08-14T19:57:29.095Z,5.70
2018-08-14T20:02:32.281Z,3.83
2018-08-14T20:07:35.390Z,2.20
2018-08-14T20:12:38.541Z,10.03
2018-08-14T20:17:41.715Z,7.37
2018-08-14T20:22:44.850Z,7.53
2018-08-14T20:27:48.028Z,5.37
2018-08-14T20:32:51.137Z,5.40
2018-08-14T20:37:54.271Z,3.30
2018-08-14T20:42:57.404Z,3.00
2018-08-14T20:48:00.672Z,7.63
2018-08-14T20:53:03.795Z,2.60
2018-08-14T20:58:07.016Z,6.37
2018-08-14T21:03:10.191Z,5.33
2018-08-14T21:08:14.124Z,3.07
2018-08-14T21:13:17.201Z,2.50
2018-08-14T21:18:20.281Z,5.70
2018-08-14T21:23:23.386Z,3.23
2018-08-14T21:28:26.494Z,3.87
2018-08-14T21:33:31.040Z,7.87
2018-08-14T21:38:34.122Z,8.00
2018-08-14T21:43:37.251Z,3.47
2018-08-14T21:48:40.320Z,5.20
2018-08-14T21:53:43.469Z,5.90
2018-08-14T21:58:46.496Z,18.07
2018-08-14T22:03:49.593Z,7.33
2018-08-14T22:08:52.746Z,6.13
2018-08-14T22:13:55.883Z,7.90
2018-08-14T22:18:59.016Z,5.33
2018-08-14T22:24:02.130Z,4.63
2018-08-14T22:29:05.279Z,9.30
2018-08-14T22:34:08.374Z,9.53
2018-08-14T22:39:11.455Z,8.93
2018-08-14T22:44:14.528Z,5.40
2018-08-14T22:49:17.592Z,8.43
2018-08-14T22:54:20.612Z,3.00
2018-08-14T22:59:23.673Z,15.40
2018-08-14T23:04:26.715Z,4.53
2018-08-14T23:09:29.824Z,10.20
2018-08-14T23:14:32.917Z,3.53
2018-08-14T23:19:36.600Z,3.20
2018-08-14T23:24:39.849Z,3.33
2018-08-14T23:29:42.944Z,5.03
2018-08-14T23:34:46.003Z,3.63
2018-08-14T23:39:49.057Z,7.60
2018-08-14T23:44:52.169Z,4.17
2018-08-14T23:49:55.197Z,4.30
2018-08-14T23:54:58.273Z,5.27
